sensor_id;sensor_type;location;lat;lon;timestamp;P1;durP1;ratioP1;P2;durP2;ratioP2
15970;SDS011;59785;52.582;13.892;2022-07-22T00:00:17;12.00;;;9.40;;
15970;SDS011;59785;52.582;13.892;2022-07-22T00:02:43;12.95;;;9.65;;
15970;SDS011;59785;52.582;13.892;2022-07-22T00:05:10;11.73;;;9.60;;
15970;SDS011;59785;52.582;13.892;2022-07-22T00:07:37;12.18;;;9.80;;
15970;SDS011;59785;52.582;13.892;2022-07-22T00:10:05;11.85;;;9.88;;
15970;SDS011;59785;52.582;13.892;2022-07-22T00:12:33;13.38;;;9.98;;
15970;SDS011;59785;52.582;13.892;2022-07-22T00:15:00;13.13;;;10.48;;
15970;SDS011;59785;52.582;13.892;2022-07-22T00:17:26;13.63;;;10.57;;
15970;SDS011;59785;52.582;13.892;2022-07-22T00:19:52;14.35;;;9.75;;
15970;SDS011;59785;52.582;13.892;2022-07-22T00:22:18;13.25;;;10.07;;
15970;SDS011;59785;52.582;13.892;2022-07-22T00:24:45;12.95;;;10.77;;
15970;SDS011;59785;52.582;13.892;2022-07-22T00:27:11;12.98;;;10.35;;
15970;SDS011;59785;52.582;13.892;2022-07-22T00:29:38;13.98;;;10.48;;
15970;SDS011;59785;52.582;13.892;2022-07-22T00:32:04;11.75;;;10.52;;
15970;SDS011;59785;52.582;13.892;2022-07-22T00:34:30;15.88;;;11.60;;
15970;SDS011;59785;52.582;13.892;2022-07-22T00:36:57;12.88;;;11.25;;
15970;SDS011;59785;52.582;13.892;2022-07-22T00:39:23;14.10;;;11.73;;
15970;SDS011;59785;52.582;13.892;2022-07-22T00:41:49;12.82;;;11.52;;
15970;SDS011;59785;52.582;13.892;2022-07-22T00:44:16;13.52;;;11.45;;
15970;SDS011;59785;52.582;13.892;2022-07-22T00:46:42;14.82;;;12.10;;
15970;SDS011;59785;52.582;13.892;2022-07-22T00:49:09;15.05;;;12.02;;
15970;SDS011;59785;52.582;13.892;2022-07-22T00:51:35;14.43;;;11.43;;
15970;SDS011;59785;52.582;13.892;2022-07-22T00:54:03;14.98;;;12.88;;
15970;SDS011;59785;52.582;13.892;2022-07-22T00:56:29;18.90;;;12.90;;
15970;SDS011;59785;52.582;13.892;2022-07-22T00:58:57;15.23;;;12.43;;
15970;SDS011;59785;52.582;13.892;2022-07-22T01:01:26;14.70;;;11.90;;
15970;SDS011;59785;52.582;13.892;2022-07-22T01:03:53;13.75;;;12.02;;
15970;SDS011;59785;52.582;13.892;2022-07-22T01:06:25;15.80;;;12.00;;
15970;SDS011;59785;52.582;13.892;2022-07-22T01:08:52;13.23;;;11.45;;
15970;SDS011;59785;52.582;13.892;2022-07-22T01:11:20;13.20;;;11.80;;
15970;SDS011;59785;52.582;13.892;2022-07-22T01:13:47;14.45;;;11.80;;
15970;SDS011;59785;52.582;13.892;2022-07-22T01:16:14;13.95;;;11.70;;
15970;SDS011;59785;52.582;13.892;2022-07-22T01:18:42;15.35;;;10.98;;
15970;SDS011;59785;52.582;13.892;2022-07-22T01:21:10;12.98;;;11.63;;
15970;SDS011;59785;52.582;13.892;2022-07-22T01:23:36;14.60;;;12.07;;
15970;SDS011;59785;52.582;13.892;2022-07-22T01:26:05;13.10;;;11.50;;
15970;SDS011;59785;52.582;13.892;2022-07-22T01:28:32;13.20;;;11.68;;
15970;SDS011;59785;52.582;13.892;2022-07-22T01:30:58;13.48;;;10.60;;
15970;SDS011;59785;52.582;13.892;2022-07-22T01:33:25;13.93;;;10.45;;
15970;SDS011;59785;52.582;13.892;2022-07-22T01:35:51;12.88;;;11.15;;
15970;SDS011;59785;52.582;13.892;2022-07-22T01:38:18;13.20;;;11.57;;
15970;SDS011;59785;52.582;13.892;2022-07-22T01:40:45;14.38;;;11.82;;
15970;SDS011;59785;52.582;13.892;2022-07-22T01:43:13;14.52;;;10.40;;
15970;SDS011;59785;52.582;13.892;2022-07-22T01:45:45;12.15;;;10.88;;
15970;SDS011;59785;52.582;13.892;2022-07-22T01:48:11;12.05;;;10.60;;
15970;SDS011;59785;52.582;13.892;2022-07-22T01:50:39;13.57;;;11.35;;
15970;SDS011;59785;52.582;13.892;2022-07-22T01:53:06;12.98;;;10.68;;
15970;SDS011;59785;52.582;13.892;2022-07-22T01:55:33;11.48;;;10.20;;
15970;SDS011;59785;52.582;13.892;2022-07-22T01:57:59;11.60;;;9.65;;
15970;SDS011;59785;52.582;13.892;2022-07-22T02:00:30;12.60;;;9.50;;
15970;SDS011;59785;52.582;13.892;2022-07-22T02:02:59;11.60;;;9.02;;
15970;SDS011;59785;52.582;13.892;2022-07-22T02:05:26;11.70;;;9.10;;
15970;SDS011;59785;52.582;13.892;2022-07-22T02:07:59;10.20;;;8.88;;
15970;SDS011;59785;52.582;13.892;2022-07-22T02:10:30;10.45;;;8.50;;
15970;SDS011;59785;52.582;13.892;2022-07-22T02:12:57;10.40;;;8.45;;
15970;SDS011;59785;52.582;13.892;2022-07-22T02:15:24;9.38;;;8.38;;
15970;SDS011;59785;52.582;13.892;2022-07-22T02:17:50;10.35;;;8.70;;
15970;SDS011;59785;52.582;13.892;2022-07-22T02:20:17;10.35;;;8.15;;
15970;SDS011;59785;52.582;13.892;2022-07-22T02:22:43;10.75;;;8.65;;
15970;SDS011;59785;52.582;13.892;2022-07-22T02:25:09;9.00;;;8.10;;
15970;SDS011;59785;52.582;13.892;2022-07-22T02:27:36;9.23;;;7.53;;
15970;SDS011;59785;52.582;13.892;2022-07-22T02:30:04;11.80;;;8.43;;
15970;SDS011;59785;52.582;13.892;2022-07-22T02:32:31;9.48;;;7.82;;
15970;SDS011;59785;52.582;13.892;2022-07-22T02:34:58;8.80;;;7.00;;
15970;SDS011;59785;52.582;13.892;2022-07-22T02:37:25;8.95;;;7.45;;
15970;SDS011;59785;52.582;13.892;2022-07-22T02:39:51;8.30;;;6.97;;
15970;SDS011;59785;52.582;13.892;2022-07-22T02:42:17;9.85;;;7.88;;
15970;SDS011;59785;52.582;13.892;2022-07-22T02:44:47;10.00;;;7.70;;
15970;SDS011;59785;52.582;13.892;2022-07-22T02:47:13;10.40;;;7.95;;
15970;SDS011;59785;52.582;13.892;2022-07-22T02:49:41;8.27;;;7.25;;
15970;SDS011;59785;52.582;13.892;2022-07-22T02:52:07;8.63;;;7.10;;
15970;SDS011;59785;52.582;13.892;2022-07-22T02:54:33;9.77;;;7.15;;
15970;SDS011;59785;52.582;13.892;2022-07-22T02:57:00;8.95;;;7.45;;
15970;SDS011;59785;52.582;13.892;2022-07-22T02:59:26;8.77;;;6.60;;
15970;SDS011;59785;52.582;13.892;2022-07-22T03:01:52;6.93;;;6.22;;
15970;SDS011;59785;52.582;13.892;2022-07-22T03:04:18;7.05;;;6.35;;
15970;SDS011;59785;52.582;13.892;2022-07-22T03:06:45;7.10;;;6.43;;
15970;SDS011;59785;52.582;13.892;2022-07-22T03:09:17;7.65;;;6.43;;
15970;SDS011;59785;52.582;13.892;2022-07-22T03:11:45;10.90;;;6.93;;
15970;SDS011;59785;52.582;13.892;2022-07-22T03:14:11;8.48;;;6.40;;
15970;SDS011;59785;52.582;13.892;2022-07-22T03:16:37;7.93;;;6.50;;
15970;SDS011;59785;52.582;13.892;2022-07-22T03:19:04;9.35;;;6.93;;
15970;SDS011;59785;52.582;13.892;2022-07-22T03:21:30;8.60;;;7.10;;
15970;SDS011;59785;52.582;13.892;2022-07-22T03:23:56;8.50;;;6.70;;
15970;SDS011;59785;52.582;13.892;2022-07-22T03:26:22;9.43;;;6.88;;
15970;SDS011;59785;52.582;13.892;2022-07-22T03:28:49;7.88;;;7.07;;
15970;SDS011;59785;52.582;13.892;2022-07-22T03:31:16;7.32;;;6.35;;
15970;SDS011;59785;52.582;13.892;2022-07-22T03:33:43;8.25;;;6.70;;
15970;SDS011;59785;52.582;13.892;2022-07-22T03:36:10;8.65;;;6.88;;
15970;SDS011;59785;52.582;13.892;2022-07-22T03:38:39;9.07;;;6.82;;
15970;SDS011;59785;52.582;13.892;2022-07-22T03:41:06;11.23;;;7.40;;
15970;SDS011;59785;52.582;13.892;2022-07-22T03:43:32;8.40;;;5.93;;
15970;SDS011;59785;52.582;13.892;2022-07-22T03:46:01;11.40;;;7.35;;
15970;SDS011;59785;52.582;13.892;2022-07-22T03:48:27;9.23;;;7.03;;
15970;SDS011;59785;52.582;13.892;2022-07-22T03:50:54;7.90;;;6.55;;
15970;SDS011;59785;52.582;13.892;2022-07-22T03:53:23;8.00;;;6.60;;
15970;SDS011;59785;52.582;13.892;2022-07-22T03:55:49;7.10;;;6.40;;
15970;SDS011;59785;52.582;13.892;2022-07-22T03:58:16;9.93;;;7.03;;
15970;SDS011;59785;52.582;13.892;2022-07-22T04:00:44;7.13;;;6.43;;
15970;SDS011;59785;52.582;13.892;2022-07-22T04:03:10;8.20;;;6.50;;
15970;SDS011;59785;52.582;13.892;2022-07-22T04:05:55;7.25;;;6.50;;
15970;SDS011;59785;52.582;13.892;2022-07-22T04:08:33;10.85;;;7.25;;
15970;SDS011;59785;52.582;13.892;2022-07-22T04:11:00;8.15;;;6.25;;
15970;SDS011;59785;52.582;13.892;2022-07-22T04:13:27;11.65;;;6.60;;
15970;SDS011;59785;52.582;13.892;2022-07-22T04:15:55;7.93;;;6.60;;
15970;SDS011;59785;52.582;13.892;2022-07-22T04:18:21;8.43;;;6.63;;
15970;SDS011;59785;52.582;13.892;2022-07-22T04:20:48;9.25;;;6.32;;
15970;SDS011;59785;52.582;13.892;2022-07-22T04:23:16;7.57;;;6.32;;
15970;SDS011;59785;52.582;13.892;2022-07-22T04:25:49;8.70;;;6.65;;
15970;SDS011;59785;52.582;13.892;2022-07-22T04:28:15;8.27;;;6.00;;
15970;SDS011;59785;52.582;13.892;2022-07-22T04:30:42;8.27;;;6.65;;
15970;SDS011;59785;52.582;13.892;2022-07-22T04:33:08;7.15;;;6.40;;
15970;SDS011;59785;52.582;13.892;2022-07-22T04:35:35;8.63;;;6.63;;
15970;SDS011;59785;52.582;13.892;2022-07-22T04:38:12;10.35;;;7.00;;
15970;SDS011;59785;52.582;13.892;2022-07-22T04:40:43;8.80;;;6.88;;
15970;SDS011;59785;52.582;13.892;2022-07-22T04:43:15;9.60;;;7.72;;
15970;SDS011;59785;52.582;13.892;2022-07-22T04:45:41;8.95;;;6.82;;
15970;SDS011;59785;52.582;13.892;2022-07-22T04:48:08;9.57;;;7.07;;
15970;SDS011;59785;52.582;13.892;2022-07-22T04:50:37;9.32;;;7.60;;
15970;SDS011;59785;52.582;13.892;2022-07-22T04:53:04;9.43;;;7.28;;
15970;SDS011;59785;52.582;13.892;2022-07-22T04:55:30;10.05;;;7.35;;
15970;SDS011;59785;52.582;13.892;2022-07-22T04:57:57;11.88;;;7.05;;
15970;SDS011;59785;52.582;13.892;2022-07-22T05:00:23;11.20;;;8.00;;
15970;SDS011;59785;52.582;13.892;2022-07-22T05:02:52;10.82;;;7.55;;
15970;SDS011;59785;52.582;13.892;2022-07-22T05:05:19;10.27;;;7.53;;
15970;SDS011;59785;52.582;13.892;2022-07-22T05:07:46;12.52;;;8.13;;
15970;SDS011;59785;52.582;13.892;2022-07-22T05:10:12;11.18;;;7.55;;
15970;SDS011;59785;52.582;13.892;2022-07-22T05:12:45;13.85;;;8.50;;
15970;SDS011;59785;52.582;13.892;2022-07-22T05:15:11;13.32;;;7.70;;
15970;SDS011;59785;52.582;13.892;2022-07-22T05:17:38;9.00;;;7.82;;
15970;SDS011;59785;52.582;13.892;2022-07-22T05:20:12;10.38;;;8.65;;
15970;SDS011;59785;52.582;13.892;2022-07-22T05:22:38;10.85;;;8.00;;
15970;SDS011;59785;52.582;13.892;2022-07-22T05:25:11;9.98;;;7.88;;
15970;SDS011;59785;52.582;13.892;2022-07-22T05:27:37;11.32;;;8.38;;
15970;SDS011;59785;52.582;13.892;2022-07-22T05:30:04;9.20;;;7.82;;
15970;SDS011;59785;52.582;13.892;2022-07-22T05:32:34;10.90;;;8.45;;
15970;SDS011;59785;52.582;13.892;2022-07-22T05:35:01;10.18;;;7.60;;
15970;SDS011;59785;52.582;13.892;2022-07-22T05:37:28;10.43;;;8.43;;
15970;SDS011;59785;52.582;13.892;2022-07-22T05:39:54;9.05;;;7.75;;
15970;SDS011;59785;52.582;13.892;2022-07-22T05:42:21;12.45;;;7.35;;
15970;SDS011;59785;52.582;13.892;2022-07-22T05:44:47;10.55;;;7.80;;
15970;SDS011;59785;52.582;13.892;2022-07-22T05:47:14;9.90;;;7.10;;
15970;SDS011;59785;52.582;13.892;2022-07-22T05:49:40;11.50;;;9.50;;
15970;SDS011;59785;52.582;13.892;2022-07-22T05:52:10;10.40;;;8.80;;
15970;SDS011;59785;52.582;13.892;2022-07-22T05:54:39;16.67;;;9.00;;
15970;SDS011;59785;52.582;13.892;2022-07-22T10:21:56;11.48;;;8.40;;
15970;SDS011;59785;52.582;13.892;2022-07-22T10:24:23;13.32;;;12.52;;
15970;SDS011;59785;52.582;13.892;2022-07-22T10:26:58;14.52;;;13.55;;
15970;SDS011;59785;52.582;13.892;2022-07-22T10:29:28;13.50;;;12.60;;
15970;SDS011;59785;52.582;13.892;2022-07-22T10:34:43;17.73;;;16.70;;
15970;SDS011;59785;52.582;13.892;2022-07-22T10:45:37;8.00;;;7.20;;
15970;SDS011;59785;52.582;13.892;2022-07-22T10:48:18;6.60;;;6.00;;
15970;SDS011;59785;52.582;13.892;2022-07-22T10:50:48;6.25;;;5.65;;
15970;SDS011;59785;52.582;13.892;2022-07-22T10:53:18;6.85;;;5.45;;
15970;SDS011;59785;52.582;13.892;2022-07-22T10:56:03;5.40;;;4.80;;
15970;SDS011;59785;52.582;13.892;2022-07-22T11:01:02;5.32;;;4.82;;
15970;SDS011;59785;52.582;13.892;2022-07-22T11:03:30;5.00;;;4.50;;
15970;SDS011;59785;52.582;13.892;2022-07-22T11:06:08;6.13;;;5.50;;
15970;SDS011;59785;52.582;13.892;2022-07-22T11:08:41;5.80;;;5.30;;
15970;SDS011;59785;52.582;13.892;2022-07-22T11:11:08;8.60;;;7.78;;
15970;SDS011;59785;52.582;13.892;2022-07-22T11:13:36;9.00;;;8.30;;
15970;SDS011;59785;52.582;13.892;2022-07-22T11:16:22;8.68;;;8.07;;
15970;SDS011;59785;52.582;13.892;2022-07-22T11:18:54;11.77;;;10.88;;
15970;SDS011;59785;52.582;13.892;2022-07-22T11:21:23;12.02;;;11.15;;
15970;SDS011;59785;52.582;13.892;2022-07-22T11:23:55;12.68;;;11.73;;
15970;SDS011;59785;52.582;13.892;2022-07-22T11:26:25;12.35;;;11.52;;
15970;SDS011;59785;52.582;13.892;2022-07-22T11:28:59;13.35;;;12.40;;
15970;SDS011;59785;52.582;13.892;2022-07-22T11:31:26;11.23;;;10.43;;
15970;SDS011;59785;52.582;13.892;2022-07-22T11:33:52;10.52;;;9.73;;
15970;SDS011;59785;52.582;13.892;2022-07-22T11:36:31;7.40;;;6.90;;
15970;SDS011;59785;52.582;13.892;2022-07-22T11:38:59;8.38;;;7.78;;
15970;SDS011;59785;52.582;13.892;2022-07-22T11:41:28;6.80;;;5.57;;
15970;SDS011;59785;52.582;13.892;2022-07-22T11:43:56;4.75;;;4.35;;
15970;SDS011;59785;52.582;13.892;2022-07-22T11:46:24;6.90;;;4.95;;
15970;SDS011;59785;52.582;13.892;2022-07-22T11:48:54;7.35;;;6.65;;
15970;SDS011;59785;52.582;13.892;2022-07-22T11:51:27;7.30;;;6.80;;
15970;SDS011;59785;52.582;13.892;2022-07-22T11:53:54;9.52;;;9.02;;
15970;SDS011;59785;52.582;13.892;2022-07-22T11:56:21;7.68;;;6.97;;
15970;SDS011;59785;52.582;13.892;2022-07-22T11:58:48;13.60;;;12.75;;
15970;SDS011;59785;52.582;13.892;2022-07-22T12:01:16;13.55;;;12.73;;
15970;SDS011;59785;52.582;13.892;2022-07-22T12:06:42;6.55;;;6.03;;
15970;SDS011;59785;52.582;13.892;2022-07-22T12:11:39;14.18;;;13.43;;
15970;SDS011;59785;52.582;13.892;2022-07-22T12:14:08;16.10;;;15.23;;
15970;SDS011;59785;52.582;13.892;2022-07-22T12:16:41;14.45;;;13.63;;
15970;SDS011;59785;52.582;13.892;2022-07-22T12:19:10;16.50;;;15.35;;
15970;SDS011;59785;52.582;13.892;2022-07-22T12:21:54;9.00;;;8.40;;
15970;SDS011;59785;52.582;13.892;2022-07-22T12:27:08;11.25;;;10.55;;
15970;SDS011;59785;52.582;13.892;2022-07-22T12:34:46;6.38;;;6.00;;
15970;SDS011;59785;52.582;13.892;2022-07-22T12:37:43;8.38;;;7.57;;
15970;SDS011;59785;52.582;13.892;2022-07-22T12:40:19;5.32;;;4.93;;
15970;SDS011;59785;52.582;13.892;2022-07-22T12:42:59;5.90;;;5.50;;
15970;SDS011;59785;52.582;13.892;2022-07-22T12:45:27;7.63;;;7.13;;
15970;SDS011;59785;52.582;13.892;2022-07-22T12:47:56;6.68;;;6.28;;
15970;SDS011;59785;52.582;13.892;2022-07-22T12:50:39;8.88;;;8.18;;
15970;SDS011;59785;52.582;13.892;2022-07-22T12:53:10;8.00;;;7.47;;
15970;SDS011;59785;52.582;13.892;2022-07-22T12:55:43;6.22;;;5.82;;
15970;SDS011;59785;52.582;13.892;2022-07-22T12:58:15;5.88;;;5.47;;
15970;SDS011;59785;52.582;13.892;2022-07-22T13:00:45;7.15;;;6.63;;
15970;SDS011;59785;52.582;13.892;2022-07-22T13:03:13;5.43;;;4.97;;
15970;SDS011;59785;52.582;13.892;2022-07-22T13:05:40;6.22;;;5.82;;
15970;SDS011;59785;52.582;13.892;2022-07-22T13:08:07;6.70;;;6.30;;
15970;SDS011;59785;52.582;13.892;2022-07-22T13:10:34;9.32;;;8.45;;
15970;SDS011;59785;52.582;13.892;2022-07-22T13:13:01;9.85;;;9.27;;
15970;SDS011;59785;52.582;13.892;2022-07-22T13:15:27;15.45;;;14.48;;
15970;SDS011;59785;52.582;13.892;2022-07-22T13:17:53;15.52;;;14.52;;
15970;SDS011;59785;52.582;13.892;2022-07-22T13:20:20;11.93;;;11.13;;
15970;SDS011;59785;52.582;13.892;2022-07-22T13:22:49;10.13;;;9.32;;
15970;SDS011;59785;52.582;13.892;2022-07-22T13:25:15;15.55;;;14.68;;
15970;SDS011;59785;52.582;13.892;2022-07-22T13:27:41;17.00;;;16.05;;
15970;SDS011;59785;52.582;13.892;2022-07-22T13:30:09;16.38;;;15.38;;
15970;SDS011;59785;52.582;13.892;2022-07-22T13:32:35;17.90;;;16.85;;
15970;SDS011;59785;52.582;13.892;2022-07-22T13:35:13;16.83;;;15.88;;
15970;SDS011;59785;52.582;13.892;2022-07-22T13:37:39;15.27;;;14.27;;
15970;SDS011;59785;52.582;13.892;2022-07-22T13:40:06;5.47;;;5.07;;
15970;SDS011;59785;52.582;13.892;2022-07-22T13:42:33;10.13;;;9.52;;
15970;SDS011;59785;52.582;13.892;2022-07-22T13:44:59;7.90;;;7.40;;
15970;SDS011;59785;52.582;13.892;2022-07-22T13:47:27;7.32;;;6.72;;
15970;SDS011;59785;52.582;13.892;2022-07-22T13:49:54;6.20;;;5.80;;
15970;SDS011;59785;52.582;13.892;2022-07-22T13:52:20;7.50;;;6.90;;
15970;SDS011;59785;52.582;13.892;2022-07-22T13:54:46;5.60;;;5.18;;
15970;SDS011;59785;52.582;13.892;2022-07-22T13:57:16;6.22;;;5.88;;
15970;SDS011;59785;52.582;13.892;2022-07-22T13:59:43;6.05;;;5.63;;
15970;SDS011;59785;52.582;13.892;2022-07-22T14:02:10;6.47;;;6.07;;
15970;SDS011;59785;52.582;13.892;2022-07-22T14:04:37;6.95;;;6.45;;
15970;SDS011;59785;52.582;13.892;2022-07-22T14:07:03;7.28;;;6.72;;
15970;SDS011;59785;52.582;13.892;2022-07-22T14:09:36;9.52;;;9.02;;
15970;SDS011;59785;52.582;13.892;2022-07-22T14:12:02;9.65;;;9.10;;
15970;SDS011;59785;52.582;13.892;2022-07-22T14:14:29;5.88;;;5.43;;
15970;SDS011;59785;52.582;13.892;2022-07-22T14:16:55;7.22;;;6.72;;
15970;SDS011;59785;52.582;13.892;2022-07-22T14:19:22;8.13;;;7.72;;
15970;SDS011;59785;52.582;13.892;2022-07-22T14:21:50;6.25;;;5.88;;
15970;SDS011;59785;52.582;13.892;2022-07-22T14:24:16;7.00;;;6.35;;
15970;SDS011;59785;52.582;13.892;2022-07-22T14:26:43;3.90;;;3.55;;
15970;SDS011;59785;52.582;13.892;2022-07-22T14:29:09;5.05;;;4.38;;
15970;SDS011;59785;52.582;13.892;2022-07-22T14:31:35;5.15;;;4.75;;
15970;SDS011;59785;52.582;13.892;2022-07-22T14:34:02;6.45;;;6.15;;
15970;SDS011;59785;52.582;13.892;2022-07-22T14:36:29;4.38;;;4.07;;
15970;SDS011;59785;52.582;13.892;2022-07-22T14:38:55;4.82;;;4.53;;
15970;SDS011;59785;52.582;13.892;2022-07-22T14:41:21;4.50;;;4.20;;
15970;SDS011;59785;52.582;13.892;2022-07-22T14:43:48;4.70;;;4.38;;
15970;SDS011;59785;52.582;13.892;2022-07-22T14:46:15;4.78;;;4.47;;
15970;SDS011;59785;52.582;13.892;2022-07-22T14:48:41;4.20;;;3.83;;
15970;SDS011;59785;52.582;13.892;2022-07-22T14:51:07;5.22;;;3.28;;
15970;SDS011;59785;52.582;13.892;2022-07-22T14:53:34;6.05;;;4.90;;
15970;SDS011;59785;52.582;13.892;2022-07-22T14:56:00;5.03;;;4.55;;
15970;SDS011;59785;52.582;13.892;2022-07-22T14:58:26;4.57;;;4.28;;
15970;SDS011;59785;52.582;13.892;2022-07-22T15:00:52;4.55;;;4.15;;
15970;SDS011;59785;52.582;13.892;2022-07-22T15:03:19;5.20;;;4.80;;
15970;SDS011;59785;52.582;13.892;2022-07-22T15:05:45;3.50;;;3.30;;
15970;SDS011;59785;52.582;13.892;2022-07-22T15:08:12;4.65;;;4.35;;
15970;SDS011;59785;52.582;13.892;2022-07-22T15:10:39;4.68;;;4.20;;
15970;SDS011;59785;52.582;13.892;2022-07-22T15:13:05;5.53;;;5.13;;
15970;SDS011;59785;52.582;13.892;2022-07-22T15:15:31;6.43;;;6.03;;
15970;SDS011;59785;52.582;13.892;2022-07-22T15:17:57;7.15;;;6.75;;
15970;SDS011;59785;52.582;13.892;2022-07-22T15:20:24;8.55;;;7.72;;
15970;SDS011;59785;52.582;13.892;2022-07-22T15:22:51;6.53;;;6.05;;
15970;SDS011;59785;52.582;13.892;2022-07-22T15:25:17;9.18;;;8.65;;
15970;SDS011;59785;52.582;13.892;2022-07-22T15:27:43;8.75;;;8.15;;
15970;SDS011;59785;52.582;13.892;2022-07-22T15:30:10;8.85;;;8.25;;
15970;SDS011;59785;52.582;13.892;2022-07-22T15:32:37;10.70;;;9.38;;
15970;SDS011;59785;52.582;13.892;2022-07-22T15:35:03;7.43;;;7.03;;
15970;SDS011;59785;52.582;13.892;2022-07-22T15:37:31;4.88;;;4.57;;
15970;SDS011;59785;52.582;13.892;2022-07-22T15:39:57;2.80;;;2.60;;
15970;SDS011;59785;52.582;13.892;2022-07-22T15:42:24;2.90;;;1.83;;
15970;SDS011;59785;52.582;13.892;2022-07-22T15:44:50;3.22;;;1.90;;
15970;SDS011;59785;52.582;13.892;2022-07-22T15:47:16;3.72;;;1.75;;
15970;SDS011;59785;52.582;13.892;2022-07-22T15:49:44;1.90;;;1.80;;
15970;SDS011;59785;52.582;13.892;2022-07-22T15:52:17;1.60;;;1.50;;
15970;SDS011;59785;52.582;13.892;2022-07-22T15:54:44;1.80;;;1.70;;
15970;SDS011;59785;52.582;13.892;2022-07-22T15:57:10;2.05;;;1.90;;
15970;SDS011;59785;52.582;13.892;2022-07-22T15:59:55;2.80;;;1.70;;
15970;SDS011;59785;52.582;13.892;2022-07-22T16:02:22;1.83;;;1.73;;
15970;SDS011;59785;52.582;13.892;2022-07-22T16:04:48;2.83;;;1.73;;
15970;SDS011;59785;52.582;13.892;2022-07-22T16:07:15;2.83;;;1.65;;
15970;SDS011;59785;52.582;13.892;2022-07-22T16:09:42;1.80;;;1.48;;
15970;SDS011;59785;52.582;13.892;2022-07-22T16:12:09;1.50;;;1.40;;
15970;SDS011;59785;52.582;13.892;2022-07-22T16:14:35;1.73;;;1.40;;
15970;SDS011;59785;52.582;13.892;2022-07-22T16:17:01;2.55;;;1.30;;
15970;SDS011;59785;52.582;13.892;2022-07-22T16:19:27;2.22;;;1.70;;
15970;SDS011;59785;52.582;13.892;2022-07-22T16:21:53;1.63;;;1.38;;
15970;SDS011;59785;52.582;13.892;2022-07-22T16:24:19;4.60;;;1.73;;
15970;SDS011;59785;52.582;13.892;2022-07-22T16:26:46;7.55;;;2.60;;
15970;SDS011;59785;52.582;13.892;2022-07-22T16:29:12;1.58;;;1.48;;
15970;SDS011;59785;52.582;13.892;2022-07-22T16:31:38;2.83;;;1.50;;
15970;SDS011;59785;52.582;13.892;2022-07-22T16:34:05;1.70;;;1.55;;
15970;SDS011;59785;52.582;13.892;2022-07-22T16:36:31;1.23;;;1.23;;
15970;SDS011;59785;52.582;13.892;2022-07-22T16:38:57;1.50;;;1.40;;
15970;SDS011;59785;52.582;13.892;2022-07-22T16:41:24;1.90;;;1.40;;
15970;SDS011;59785;52.582;13.892;2022-07-22T16:43:52;1.50;;;1.40;;
15970;SDS011;59785;52.582;13.892;2022-07-22T16:46:18;2.35;;;1.38;;
15970;SDS011;59785;52.582;13.892;2022-07-22T16:48:44;1.40;;;1.30;;
15970;SDS011;59785;52.582;13.892;2022-07-22T16:51:10;1.75;;;1.30;;
15970;SDS011;59785;52.582;13.892;2022-07-22T16:53:44;2.17;;;1.60;;
15970;SDS011;59785;52.582;13.892;2022-07-22T16:56:11;10.40;;;2.25;;
15970;SDS011;59785;52.582;13.892;2022-07-22T16:58:37;1.42;;;1.33;;
15970;SDS011;59785;52.582;13.892;2022-07-22T17:01:04;1.45;;;1.35;;
15970;SDS011;59785;52.582;13.892;2022-07-22T17:03:30;1.98;;;1.10;;
15970;SDS011;59785;52.582;13.892;2022-07-22T17:05:56;2.13;;;1.35;;
15970;SDS011;59785;52.582;13.892;2022-07-22T17:08:26;6.45;;;2.60;;
15970;SDS011;59785;52.582;13.892;2022-07-22T17:10:53;1.45;;;1.35;;
15970;SDS011;59785;52.582;13.892;2022-07-22T17:13:19;3.78;;;1.80;;
15970;SDS011;59785;52.582;13.892;2022-07-22T17:15:54;2.28;;;1.40;;
15970;SDS011;59785;52.582;13.892;2022-07-22T17:18:22;4.97;;;3.08;;
15970;SDS011;59785;52.582;13.892;2022-07-22T17:20:48;3.45;;;1.30;;
15970;SDS011;59785;52.582;13.892;2022-07-22T17:23:14;1.38;;;1.27;;
15970;SDS011;59785;52.582;13.892;2022-07-22T17:25:41;2.85;;;1.40;;
15970;SDS011;59785;52.582;13.892;2022-07-22T17:28:07;3.53;;;1.60;;
15970;SDS011;59785;52.582;13.892;2022-07-22T17:30:33;1.75;;;1.30;;
15970;SDS011;59785;52.582;13.892;2022-07-22T17:32:59;4.72;;;1.27;;
15970;SDS011;59785;52.582;13.892;2022-07-22T17:35:25;1.88;;;1.20;;
15970;SDS011;59785;52.582;13.892;2022-07-22T17:37:55;1.98;;;1.20;;
15970;SDS011;59785;52.582;13.892;2022-07-22T17:40:21;3.10;;;1.70;;
15970;SDS011;59785;52.582;13.892;2022-07-22T17:42:48;1.98;;;1.50;;
15970;SDS011;59785;52.582;13.892;2022-07-22T17:45:14;3.60;;;1.70;;
15970;SDS011;59785;52.582;13.892;2022-07-22T17:47:40;1.73;;;1.63;;
15970;SDS011;59785;52.582;13.892;2022-07-22T17:50:06;2.10;;;1.80;;
15970;SDS011;59785;52.582;13.892;2022-07-22T17:52:35;4.22;;;2.15;;
15970;SDS011;59785;52.582;13.892;2022-07-22T17:55:03;2.00;;;1.90;;
15970;SDS011;59785;52.582;13.892;2022-07-22T17:57:30;3.40;;;2.15;;
15970;SDS011;59785;52.582;13.892;2022-07-22T17:59:56;2.83;;;2.13;;
15970;SDS011;59785;52.582;13.892;2022-07-22T18:02:23;2.47;;;2.20;;
15970;SDS011;59785;52.582;13.892;2022-07-22T18:04:49;2.50;;;2.30;;
15970;SDS011;59785;52.582;13.892;2022-07-22T18:07:15;3.72;;;2.25;;
15970;SDS011;59785;52.582;13.892;2022-07-22T18:09:41;2.83;;;2.47;;
15970;SDS011;59785;52.582;13.892;2022-07-22T18:12:07;2.63;;;1.88;;
15970;SDS011;59785;52.582;13.892;2022-07-22T18:14:34;2.10;;;2.00;;
15970;SDS011;59785;52.582;13.892;2022-07-22T18:17:00;2.45;;;2.10;;
15970;SDS011;59785;52.582;13.892;2022-07-22T18:19:26;5.22;;;2.92;;
15970;SDS011;59785;52.582;13.892;2022-07-22T18:21:52;2.30;;;2.10;;
15970;SDS011;59785;52.582;13.892;2022-07-22T18:24:18;4.43;;;2.47;;
15970;SDS011;59785;52.582;13.892;2022-07-22T18:26:45;2.75;;;2.55;;
15970;SDS011;59785;52.582;13.892;2022-07-22T18:29:11;2.60;;;2.40;;
15970;SDS011;59785;52.582;13.892;2022-07-22T18:31:37;3.53;;;2.60;;
15970;SDS011;59785;52.582;13.892;2022-07-22T18:34:04;3.53;;;2.35;;
15970;SDS011;59785;52.582;13.892;2022-07-22T18:36:30;2.60;;;2.15;;
15970;SDS011;59785;52.582;13.892;2022-07-22T18:38:56;2.88;;;2.25;;
15970;SDS011;59785;52.582;13.892;2022-07-22T18:41:22;2.72;;;2.30;;
15970;SDS011;59785;52.582;13.892;2022-07-22T18:43:48;2.35;;;2.15;;
15970;SDS011;59785;52.582;13.892;2022-07-22T18:46:14;4.70;;;2.58;;
15970;SDS011;59785;52.582;13.892;2022-07-22T18:48:41;3.30;;;2.38;;
15970;SDS011;59785;52.582;13.892;2022-07-22T18:51:07;2.85;;;2.05;;
15970;SDS011;59785;52.582;13.892;2022-07-22T18:53:33;4.60;;;2.63;;
15970;SDS011;59785;52.582;13.892;2022-07-22T18:56:02;4.00;;;2.65;;
15970;SDS011;59785;52.582;13.892;2022-07-22T18:58:28;10.65;;;2.72;;
15970;SDS011;59785;52.582;13.892;2022-07-22T19:00:55;5.65;;;2.63;;
15970;SDS011;59785;52.582;13.892;2022-07-22T19:03:21;2.60;;;2.38;;
15970;SDS011;59785;52.582;13.892;2022-07-22T19:05:52;2.30;;;2.10;;
15970;SDS011;59785;52.582;13.892;2022-07-22T19:08:18;2.45;;;2.25;;
15970;SDS011;59785;52.582;13.892;2022-07-22T19:10:45;3.17;;;2.35;;
15970;SDS011;59785;52.582;13.892;2022-07-22T19:13:11;2.30;;;2.10;;
15970;SDS011;59785;52.582;13.892;2022-07-22T19:15:37;3.30;;;2.40;;
15970;SDS011;59785;52.582;13.892;2022-07-22T19:18:03;5.47;;;2.95;;
15970;SDS011;59785;52.582;13.892;2022-07-22T19:20:30;2.45;;;2.20;;
15970;SDS011;59785;52.582;13.892;2022-07-22T19:22:57;3.00;;;2.50;;